Time;durP1;ratioP1;P1;durP2;ratioP2;P2;SDS_P1;SDS_P2;PMS_P1;PMS_P2;Temp;Humidity;BMP_temperature;BMP_pressure;BME280_temperature;BME280_humidity;BME280_pressure;Samples;Min_cycle;Max_cycle;Signal;HPM_P1;HPM_P2
2023/12/29 00:01:11;;;;;;;10.83;1.97;;;;;;;;;;5026477;28;20438;-60
2023/12/29 00:03:36;;;;;;;9.47;2.10;;;;;;;;;;5011964;28;20480;-60
2023/12/29 00:06:02;;;;;;;10.60;2.20;;;;;;;;;;5011205;28;20404;-61
2023/12/29 00:08:27;;;;;;;9.50;1.80;;;;;;;;;;5010684;28;20943;-60
2023/12/29 00:10:53;;;;;;;9.93;1.90;;;;;;;;;;5020574;28;20391;-60
2023/12/29 00:13:22;;;;;;;10.23;2.03;;;;;;;;;;5030713;28;20415;-60
2023/12/29 00:15:50;;;;;;;11.23;1.95;;;;;;;;;;5030410;28;20387;-60
2023/12/29 00:18:15;;;;;;;10.82;2.03;;;;;;;;;;5030786;28;20414;-60
2023/12/29 00:20:40;;;;;;;11.93;2.00;;;;;;;;;;5030237;28;20407;-60
2023/12/29 00:23:06;;;;;;;10.73;1.97;;;;;;;;;;5030032;28;20414;-61
2023/12/29 00:25:31;;;;;;;8.20;1.90;;;;;;;;;;5030999;28;20481;-60
2023/12/29 00:27:57;;;;;;;9.20;1.73;;;;;;;;;;5030265;28;20399;-60
2023/12/29 00:30:22;;;;;;;10.40;2.53;;;;;;;;;;5029713;28;20418;-60
2023/12/29 00:32:47;;;;;;;10.63;2.10;;;;;;;;;;5030868;28;20498;-60
2023/12/29 00:35:13;;;;;;;7.70;1.70;;;;;;;;;;5029830;28;20755;-60
2023/12/29 00:37:38;;;;;;;8.50;2.00;;;;;;;;;;5030320;28;20908;-61
2023/12/29 00:40:05;;;;;;;10.40;1.87;;;;;;;;;;5029644;28;20415;-61
2023/12/29 00:42:30;;;;;;;10.48;1.80;;;;;;;;;;5029840;28;20449;-60
2023/12/29 00:44:55;;;;;;;10.27;1.60;;;;;;;;;;5030165;28;20407;-60
2023/12/29 00:47:23;;;;;;;10.77;2.13;;;;;;;;;;5030114;28;20494;-61
2023/12/29 00:49:48;;;;;;;8.67;2.00;;;;;;;;;;5024659;28;20747;-60
2023/12/29 00:52:14;;;;;;;8.32;1.73;;;;;;;;;;5029891;28;21016;-61
2023/12/29 00:54:39;;;;;;;8.93;1.70;;;;;;;;;;5030601;28;20383;-61
2023/12/29 00:57:05;;;;;;;12.02;2.17;;;;;;;;;;5029069;28;20433;-61
2023/12/29 00:59:30;;;;;;;8.73;2.20;;;;;;;;;;5029507;28;20407;-60
2023/12/29 01:01:55;;;;;;;7.60;1.87;;;;;;;;;;5030076;28;20426;-60
2023/12/29 01:04:21;;;;;;;8.70;1.90;;;;;;;;;;5029158;28;20398;-61
2023/12/29 01:06:46;;;;;;;8.13;1.60;;;;;;;;;;5030214;28;20407;-60
2023/12/29 01:09:11;;;;;;;6.70;1.63;;;;;;;;;;5029402;28;20401;-61
2023/12/29 01:11:37;;;;;;;8.18;2.00;;;;;;;;;;5028618;28;20411;-60
2023/12/29 01:14:02;;;;;;;9.63;1.80;;;;;;;;;;5029687;28;21238;-61
2023/12/29 01:16:27;;;;;;;9.10;2.07;;;;;;;;;;5030141;28;20732;-60
2023/12/29 01:18:53;;;;;;;8.20;1.93;;;;;;;;;;5029212;28;20411;-60
2023/12/29 01:21:18;;;;;;;9.47;1.87;;;;;;;;;;5028728;28;20781;-60
2023/12/29 01:23:43;;;;;;;7.90;1.67;;;;;;;;;;5030132;28;20410;-60
2023/12/29 01:26:08;;;;;;;8.05;1.67;;;;;;;;;;5028600;28;20477;-60
2023/12/29 01:28:34;;;;;;;10.33;2.00;;;;;;;;;;5030003;28;20399;-60
2023/12/29 01:30:59;;;;;;;10.17;2.23;;;;;;;;;;5029016;28;20442;-60
2023/12/29 01:33:24;;;;;;;10.43;2.00;;;;;;;;;;5028590;28;20442;-60
2023/12/29 01:35:50;;;;;;;6.53;1.67;;;;;;;;;;5029524;28;21028;-60
2023/12/29 01:38:15;;;;;;;9.33;2.27;;;;;;;;;;5028756;28;20422;-60
2023/12/29 01:40:46;;;;;;;10.40;1.83;;;;;;;;;;5028964;28;20925;-60
2023/12/29 01:43:11;;;;;;;9.82;2.00;;;;;;;;;;5029233;28;20391;-60
2023/12/29 01:45:37;;;;;;;9.40;2.00;;;;;;;;;;5028839;28;20406;-60
2023/12/29 01:48:02;;;;;;;8.93;2.00;;;;;;;;;;5024232;28;21143;-60
2023/12/29 01:50:27;;;;;;;11.03;2.00;;;;;;;;;;5028581;28;20460;-60
2023/12/29 01:52:53;;;;;;;8.77;1.80;;;;;;;;;;5027885;28;20419;-60
2023/12/29 01:55:19;;;;;;;10.18;1.98;;;;;;;;;;5027370;28;20442;-60
2023/12/29 01:57:44;;;;;;;8.38;1.88;;;;;;;;;;5029071;28;20430;-60
2023/12/29 02:00:11;;;;;;;9.77;1.80;;;;;;;;;;5026168;28;20502;-60
2023/12/29 02:02:36;;;;;;;8.65;2.13;;;;;;;;;;5029042;28;20407;-60
2023/12/29 02:05:01;;;;;;;10.63;2.00;;;;;;;;;;5028538;28;20887;-61
2023/12/29 02:07:30;;;;;;;10.23;1.87;;;;;;;;;;5028592;28;20391;-60
2023/12/29 02:09:55;;;;;;;10.02;2.30;;;;;;;;;;5028369;28;20403;-60
2023/12/29 02:12:21;;;;;;;7.67;1.53;;;;;;;;;;5043792;28;21135;-60
2023/12/29 02:14:46;;;;;;;10.40;1.70;;;;;;;;;;5043779;28;20414;-60
2023/12/29 02:17:20;;;;;;;8.20;1.50;;;;;;;;;;5043556;28;20399;-60
2023/12/29 02:19:46;;;;;;;7.03;1.60;;;;;;;;;;5026905;28;20403;-60
2023/12/29 02:22:12;;;;;;;7.20;1.80;;;;;;;;;;5027714;28;20410;-60
2023/12/29 02:24:37;;;;;;;8.45;1.67;;;;;;;;;;5028993;28;20395;-60
2023/12/29 02:27:08;;;;;;;6.97;1.40;;;;;;;;;;5028440;28;20395;-60
2023/12/29 02:29:33;;;;;;;8.23;1.70;;;;;;;;;;5026185;28;20418;-60
2023/12/29 02:31:59;;;;;;;10.50;2.20;;;;;;;;;;5028412;28;20415;-60
2023/12/29 02:34:24;;;;;;;8.57;1.67;;;;;;;;;;5026305;28;20510;-60
2023/12/29 02:36:50;;;;;;;7.43;1.53;;;;;;;;;;5028325;28;20403;-60
2023/12/29 02:39:15;;;;;;;8.10;1.70;;;;;;;;;;5028080;28;20427;-60
2023/12/29 02:41:41;;;;;;;10.80;2.20;;;;;;;;;;5026055;28;20508;-60
2023/12/29 02:44:06;;;;;;;9.73;2.20;;;;;;;;;;5027919;28;20629;-61
2023/12/29 02:46:31;;;;;;;7.50;1.77;;;;;;;;;;5028287;28;20387;-60
2023/12/29 02:48:56;;;;;;;7.93;1.80;;;;;;;;;;5022949;28;20402;-60
2023/12/29 02:51:22;;;;;;;9.27;2.10;;;;;;;;;;5027083;28;20403;-60
2023/12/29 02:53:48;;;;;;;8.93;1.50;;;;;;;;;;5028683;28;20404;-60
2023/12/29 02:56:14;;;;;;;8.37;1.80;;;;;;;;;;5026930;28;20980;-60
2023/12/29 02:58:39;;;;;;;7.40;1.83;;;;;;;;;;5028374;28;20422;-60
2023/12/29 03:01:04;;;;;;;8.50;2.10;;;;;;;;;;5026898;28;20453;-61
2023/12/29 03:03:30;;;;;;;8.17;1.70;;;;;;;;;;4999932;28;20397;-61
2023/12/29 03:05:55;;;;;;;9.90;1.80;;;;;;;;;;4999246;28;20853;-60
2023/12/29 03:08:20;;;;;;;8.27;1.93;;;;;;;;;;4993162;28;20408;-60
2023/12/29 03:10:45;;;;;;;9.00;1.77;;;;;;;;;;4991009;28;20412;-61
2023/12/29 03:13:11;;;;;;;8.03;1.90;;;;;;;;;;4991601;28;20420;-60
2023/12/29 03:15:36;;;;;;;9.87;1.93;;;;;;;;;;4997168;28;20396;-60
2023/12/29 03:18:02;;;;;;;9.53;1.90;;;;;;;;;;4997926;28;20519;-61
2023/12/29 03:20:27;;;;;;;11.40;2.03;;;;;;;;;;4997965;28;20413;-60
2023/12/29 03:22:52;;;;;;;10.35;1.98;;;;;;;;;;4997903;28;20440;-61
2023/12/29 03:25:18;;;;;;;9.83;1.83;;;;;;;;;;4998027;28;20408;-60
2023/12/29 03:27:43;;;;;;;12.40;2.13;;;;;;;;;;4999166;28;20417;-60
2023/12/29 03:30:08;;;;;;;9.40;1.83;;;;;;;;;;4995096;28;20413;-61
2023/12/29 03:32:34;;;;;;;12.15;2.08;;;;;;;;;;4990927;28;20407;-60
2023/12/29 03:34:59;;;;;;;12.43;2.30;;;;;;;;;;4991484;28;20428;-60
2023/12/29 03:37:24;;;;;;;10.67;2.10;;;;;;;;;;4994415;28;20388;-60
2023/12/29 03:39:50;;;;;;;9.30;2.10;;;;;;;;;;4997431;28;20404;-60
2023/12/29 03:42:15;;;;;;;12.20;2.57;;;;;;;;;;4998754;28;21060;-60
2023/12/29 03:44:40;;;;;;;10.00;2.10;;;;;;;;;;5001099;28;20966;-60
2023/12/29 03:47:05;;;;;;;11.87;2.03;;;;;;;;;;4997942;28;20421;-61
2023/12/29 03:49:31;;;;;;;11.88;2.15;;;;;;;;;;4993522;28;20837;-61
2023/12/29 03:51:56;;;;;;;9.00;2.10;;;;;;;;;;5004530;28;20415;-61
2023/12/29 03:54:21;;;;;;;9.77;2.10;;;;;;;;;;5010936;28;20478;-61
2023/12/29 03:56:47;;;;;;;9.77;2.17;;;;;;;;;;5003724;28;20397;-61
2023/12/29 03:59:12;;;;;;;11.13;1.93;;;;;;;;;;4994102;28;20401;-61
2023/12/29 04:01:37;;;;;;;14.30;2.10;;;;;;;;;;5007033;28;20435;-61
2023/12/29 04:04:03;;;;;;;10.00;2.10;;;;;;;;;;4998490;28;20474;-62
2023/12/29 04:06:28;;;;;;;10.90;2.00;;;;;;;;;;4998100;28;20400;-61
2023/12/29 04:08:53;;;;;;;9.87;2.33;;;;;;;;;;4998789;28;20470;-61
2023/12/29 04:11:18;;;;;;;12.07;2.50;;;;;;;;;;4997616;28;20413;-61
2023/12/29 04:13:44;;;;;;;11.33;2.17;;;;;;;;;;4998286;28;20443;-62
2023/12/29 04:16:09;;;;;;;12.50;2.60;;;;;;;;;;4993333;28;20955;-61
2023/12/29 04:18:34;;;;;;;12.20;2.10;;;;;;;;;;4994777;28;20484;-61
2023/12/29 04:20:59;;;;;;;13.30;2.73;;;;;;;;;;4993558;28;20424;-61
2023/12/29 04:23:25;;;;;;;13.43;2.42;;;;;;;;;;4999634;28;20405;-61
2023/12/29 04:25:50;;;;;;;14.63;2.67;;;;;;;;;;5002193;28;20904;-61
2023/12/29 04:28:16;;;;;;;11.20;2.23;;;;;;;;;;5001116;28;20414;-61
2023/12/29 04:30:41;;;;;;;12.13;2.70;;;;;;;;;;5001682;28;20535;-61
2023/12/29 04:33:06;;;;;;;14.07;3.05;;;;;;;;;;5001148;28;20423;-61
2023/12/29 04:35:31;;;;;;;15.13;2.50;;;;;;;;;;5008237;28;21101;-61
2023/12/29 04:37:57;;;;;;;11.87;2.43;;;;;;;;;;4998866;28;20389;-60
2023/12/29 04:40:22;;;;;;;9.97;2.10;;;;;;;;;;4993824;28;20989;-60
2023/12/29 04:42:47;;;;;;;12.23;2.53;;;;;;;;;;4993711;28;20488;-60
2023/12/29 04:45:13;;;;;;;11.80;2.30;;;;;;;;;;4997327;28;20397;-60
2023/12/29 04:47:38;;;;;;;11.77;2.40;;;;;;;;;;5001565;28;20547;-60
2023/12/29 04:50:04;;;;;;;12.93;2.37;;;;;;;;;;4995508;28;20408;-61
2023/12/29 04:52:30;;;;;;;10.55;2.22;;;;;;;;;;5001160;28;20530;-60
2023/12/29 04:54:55;;;;;;;13.73;2.87;;;;;;;;;;5002056;28;20548;-60
2023/12/29 04:57:20;;;;;;;16.67;3.00;;;;;;;;;;5008062;28;20947;-60
2023/12/29 04:59:45;;;;;;;14.37;2.83;;;;;;;;;;5000347;28;20396;-61
2023/12/29 05:02:11;;;;;;;11.82;2.47;;;;;;;;;;4994105;28;20972;-60
2023/12/29 05:04:37;;;;;;;14.23;3.13;;;;;;;;;;4994336;28;20432;-60
2023/12/29 05:07:03;;;;;;;10.95;2.38;;;;;;;;;;4994323;28;20799;-61
2023/12/29 05:09:28;;;;;;;13.13;2.53;;;;;;;;;;4999714;28;20397;-61
2023/12/29 05:11:53;;;;;;;18.63;2.85;;;;;;;;;;5001378;28;20664;-61
2023/12/29 05:14:19;;;;;;;13.73;2.70;;;;;;;;;;5000730;28;20404;-60
2023/12/29 05:16:44;;;;;;;12.90;2.17;;;;;;;;;;5000683;28;20517;-60
2023/12/29 05:19:09;;;;;;;14.37;2.53;;;;;;;;;;5000348;28;20404;-60
2023/12/29 05:21:34;;;;;;;15.13;2.90;;;;;;;;;;5000831;28;20504;-60
2023/12/29 05:24:00;;;;;;;12.87;3.07;;;;;;;;;;4995236;28;20423;-60
2023/12/29 05:26:25;;;;;;;12.75;2.30;;;;;;;;;;4993685;28;20424;-60
2023/12/29 05:28:51;;;;;;;14.87;2.80;;;;;;;;;;4993311;28;20435;-60
2023/12/29 05:31:16;;;;;;;13.87;2.50;;;;;;;;;;4997169;28;20967;-60
2023/12/29 05:33:42;;;;;;;13.97;3.00;;;;;;;;;;5001022;28;21185;-60
2023/12/29 05:36:07;;;;;;;12.57;2.50;;;;;;;;;;5016229;28;20443;-60
2023/12/29 05:38:33;;;;;;;11.95;2.33;;;;;;;;;;5000103;28;20401;-60
2023/12/29 05:41:01;;;;;;;12.73;2.80;;;;;;;;;;5000154;28;20451;-60
2023/12/29 05:43:26;;;;;;;14.83;2.93;;;;;;;;;;5000495;28;20409;-60
2023/12/29 05:45:51;;;;;;;13.75;2.88;;;;;;;;;;4997267;28;20396;-60
2023/12/29 05:48:17;;;;;;;14.03;3.17;;;;;;;;;;4988350;28;21421;-60
2023/12/29 05:50:42;;;;;;;12.17;2.77;;;;;;;;;;4992992;28;20955;-60
2023/12/29 05:53:07;;;;;;;14.93;3.13;;;;;;;;;;4998709;28;20972;-60
2023/12/29 05:55:33;;;;;;;14.60;2.90;;;;;;;;;;5024292;28;20392;-60
2023/12/29 05:57:58;;;;;;;14.45;2.70;;;;;;;;;;5028716;28;21008;-60
2023/12/29 06:00:23;;;;;;;13.40;2.67;;;;;;;;;;5027521;28;20456;-60
2023/12/29 06:02:49;;;;;;;14.97;2.70;;;;;;;;;;5029069;28;21067;-60
2023/12/29 06:05:14;;;;;;;13.97;2.70;;;;;;;;;;5028700;28;20897;-60
2023/12/29 06:07:40;;;;;;;14.77;2.97;;;;;;;;;;5028251;28;20399;-60
2023/12/29 06:10:05;;;;;;;14.87;2.80;;;;;;;;;;5027914;28;20403;-61
2023/12/29 06:12:30;;;;;;;15.23;2.90;;;;;;;;;;5028274;28;20399;-60
2023/12/29 06:14:56;;;;;;;14.27;2.93;;;;;;;;;;5028800;28;20403;-60
2023/12/29 06:17:21;;;;;;;13.95;3.08;;;;;;;;;;5028342;28;20411;-60
2023/12/29 06:19:46;;;;;;;14.67;2.87;;;;;;;;;;5022951;28;20879;-60
2023/12/29 06:22:14;;;;;;;11.70;2.30;;;;;;;;;;5026210;28;20815;-60
2023/12/29 06:24:39;;;;;;;13.65;2.42;;;;;;;;;;5028929;28;20814;-60
2023/12/29 06:27:04;;;;;;;12.97;2.50;;;;;;;;;;5027315;28;20926;-61
2023/12/29 06:29:30;;;;;;;14.73;2.77;;;;;;;;;;5028007;28;20433;-61
2023/12/29 06:31:55;;;;;;;13.73;2.83;;;;;;;;;;5028548;28;20902;-60
2023/12/29 06:34:20;;;;;;;15.40;2.73;;;;;;;;;;5027456;28;20399;-60
2023/12/29 06:36:45;;;;;;;11.83;2.27;;;;;;;;;;5028757;28;20670;-60
2023/12/29 06:39:11;;;;;;;14.30;2.73;;;;;;;;;;5027247;28;20794;-60
2023/12/29 06:41:36;;;;;;;13.05;2.97;;;;;;;;;;5027191;28;20422;-60
2023/12/29 06:44:02;;;;;;;15.93;2.90;;;;;;;;;;5027794;28;20821;-60
2023/12/29 06:46:27;;;;;;;12.03;2.40;;;;;;;;;;5003197;28;20409;-60
2023/12/29 06:48:52;;;;;;;11.53;2.60;;;;;;;;;;4994078;28;20400;-60
2023/12/29 06:51:18;;;;;;;11.67;2.50;;;;;;;;;;4998555;28;20836;-60
2023/12/29 06:53:44;;;;;;;10.63;2.30;;;;;;;;;;4999290;28;20540;-60
2023/12/29 06:56:14;;;;;;;11.40;2.42;;;;;;;;;;5000340;28;20455;-60
2023/12/29 06:58:40;;;;;;;11.82;2.10;;;;;;;;;;5001301;28;20428;-60
2023/12/29 07:01:05;;;;;;;10.63;2.50;;;;;;;;;;4994166;28;21128;-61
2023/12/29 07:03:30;;;;;;;14.40;2.60;;;;;;;;;;4991139;28;21320;-60
2023/12/29 07:05:56;;;;;;;11.95;2.33;;;;;;;;;;4992181;28;20922;-60
2023/12/29 07:08:22;;;;;;;10.93;2.50;;;;;;;;;;4996665;28;20397;-60
2023/12/29 07:10:50;;;;;;;13.65;2.60;;;;;;;;;;4998276;28;20407;-60
2023/12/29 07:13:15;;;;;;;13.57;2.92;;;;;;;;;;4998957;28;20552;-61
2023/12/29 07:15:40;;;;;;;10.97;2.20;;;;;;;;;;5018133;28;20418;-60
2023/12/29 07:18:06;;;;;;;14.95;2.83;;;;;;;;;;5017489;28;20449;-62
2023/12/29 07:20:31;;;;;;;9.50;2.00;;;;;;;;;;5014642;28;20421;-61
2023/12/29 07:22:56;;;;;;;11.13;2.47;;;;;;;;;;4995910;28;20429;-61
2023/12/29 07:25:22;;;;;;;11.70;2.17;;;;;;;;;;4991110;28;20439;-62
2023/12/29 07:27:48;;;;;;;9.23;2.00;;;;;;;;;;5013998;28;20399;-61
2023/12/29 07:30:14;;;;;;;9.60;1.63;;;;;;;;;;5024777;28;20932;-61
2023/12/29 07:32:39;;;;;;;10.03;1.97;;;;;;;;;;5027657;28;20395;-61
2023/12/29 07:35:04;;;;;;;8.17;2.00;;;;;;;;;;5027033;28;20411;-61
2023/12/29 07:37:30;;;;;;;8.82;1.77;;;;;;;;;;5027166;28;20458;-61
2023/12/29 07:39:55;;;;;;;9.03;1.80;;;;;;;;;;5027041;28;20413;-61
2023/12/29 07:42:21;;;;;;;9.27;1.80;;;;;;;;;;5026994;28;20398;-61
2023/12/29 07:44:46;;;;;;;9.70;1.70;;;;;;;;;;5027046;28;20433;-61
2023/12/29 07:47:11;;;;;;;10.30;1.90;;;;;;;;;;5027084;28;20406;-61
2023/12/29 07:49:37;;;;;;;9.53;1.83;;;;;;;;;;5022639;28;20797;-61
2023/12/29 07:52:02;;;;;;;10.50;2.13;;;;;;;;;;5027947;28;20468;-61
2023/12/29 07:54:27;;;;;;;7.90;1.80;;;;;;;;;;5031519;28;20986;-61
2023/12/29 07:56:53;;;;;;;9.40;2.20;;;;;;;;;;5031019;28;20812;-62
2023/12/29 07:59:18;;;;;;;9.47;1.83;;;;;;;;;;5030411;28;20454;-62
2023/12/29 08:01:43;;;;;;;9.17;2.03;;;;;;;;;;5030606;28;20400;-62
2023/12/29 08:04:09;;;;;;;11.93;3.20;;;;;;;;;;5031196;28;20417;-62
2023/12/29 08:06:36;;;;;;;8.50;2.03;;;;;;;;;;5030327;28;20448;-62
2023/12/29 08:09:02;;;;;;;11.73;6.57;;;;;;;;;;5030938;28;20423;-63
2023/12/29 08:11:27;;;;;;;11.10;2.70;;;;;;;;;;5030204;28;20433;-61
2023/12/29 08:13:52;;;;;;;9.67;2.60;;;;;;;;;;5030720;28;20566;-62
2023/12/29 08:16:18;;;;;;;8.53;2.60;;;;;;;;;;5030587;28;20441;-62
2023/12/29 08:18:44;;;;;;;12.15;2.50;;;;;;;;;;5031302;28;20403;-62
2023/12/29 08:21:15;;;;;;;10.20;2.47;;;;;;;;;;5028840;28;20414;-63
2023/12/29 08:23:40;;;;;;;11.65;2.88;;;;;;;;;;5029749;28;20743;-62
2023/12/29 08:26:06;;;;;;;9.63;2.50;;;;;;;;;;5029189;28;20411;-62
2023/12/29 08:28:31;;;;;;;9.23;2.20;;;;;;;;;;5029909;28;20414;-62
2023/12/29 08:30:56;;;;;;;8.57;1.97;;;;;;;;;;5029976;28;20979;-62
2023/12/29 08:33:22;;;;;;;9.73;2.00;;;;;;;;;;5029887;28;20419;-62
2023/12/29 08:35:47;;;;;;;9.83;2.70;;;;;;;;;;5019721;28;20412;-61
2023/12/29 08:38:12;;;;;;;6.93;1.70;;;;;;;;;;5030477;28;20388;-61
2023/12/29 08:40:38;;;;;;;6.60;1.80;;;;;;;;;;5028984;28;20407;-62
2023/12/29 08:43:03;;;;;;;7.93;1.90;;;;;;;;;;5030205;28;20498;-62
2023/12/29 08:45:28;;;;;;;8.20;1.67;;;;;;;;;;5030808;28;20414;-61
2023/12/29 08:47:54;;;;;;;6.83;1.77;;;;;;;;;;5025147;28;20410;-62
2023/12/29 08:50:19;;;;;;;7.07;1.80;;;;;;;;;;5029531;28;21101;-61
2023/12/29 08:52:44;;;;;;;8.30;1.77;;;;;;;;;;5030720;28;20395;-61
2023/12/29 08:55:10;;;;;;;6.60;1.67;;;;;;;;;;5037940;28;20402;-61
2023/12/29 08:57:35;;;;;;;8.90;1.80;;;;;;;;;;5029991;28;20391;-61
2023/12/29 09:00:01;;;;;;;7.30;1.53;;;;;;;;;;5029451;28;20465;-62
2023/12/29 09:02:26;;;;;;;8.90;2.00;;;;;;;;;;5029262;28;20419;-61
2023/12/29 09:04:51;;;;;;;6.18;1.38;;;;;;;;;;5030578;28;20430;-61
2023/12/29 09:07:17;;;;;;;5.43;1.63;;;;;;;;;;5030065;28;20425;-61
2023/12/29 09:09:42;;;;;;;7.90;2.13;;;;;;;;;;5028857;28;20415;-61
2023/12/29 09:12:07;;;;;;;38.77;29.43;;;;;;;;;;5025498;28;20477;-61
2023/12/29 09:14:34;;;;;;;7.17;1.60;;;;;;;;;;5017734;28;20482;-61
2023/12/29 09:16:59;;;;;;;6.22;2.00;;;;;;;;;;5026084;28;20412;-61
2023/12/29 09:19:25;;;;;;;7.03;2.43;;;;;;;;;;5023476;28;20395;-61
2023/12/29 09:21:50;;;;;;;6.13;1.97;;;;;;;;;;5027036;28;20407;-61
2023/12/29 09:24:15;;;;;;;6.15;1.40;;;;;;;;;;5022978;28;20409;-61
2023/12/29 09:26:41;;;;;;;6.00;1.30;;;;;;;;;;5026448;28;20403;-61
2023/12/29 09:29:06;;;;;;;6.53;1.30;;;;;;;;;;5020715;28;20415;-62
2023/12/29 09:31:31;;;;;;;5.93;1.40;;;;;;;;;;5026109;28;20406;-61
2023/12/29 09:33:56;;;;;;;6.60;1.73;;;;;;;;;;5029008;28;20821;-61
2023/12/29 09:36:22;;;;;;;5.53;1.90;;;;;;;;;;5028704;28;20399;-61
2023/12/29 09:38:47;;;;;;;5.03;1.20;;;;;;;;;;5026074;28;20399;-61
2023/12/29 09:41:13;;;;;;;4.97;1.20;;;;;;;;;;5022494;28;20404;-61
2023/12/29 09:43:39;;;;;;;5.43;1.13;;;;;;;;;;5023031;28;20401;-61
2023/12/29 09:46:04;;;;;;;5.10;1.50;;;;;;;;;;5026117;28;20402;-61
2023/12/29 09:48:29;;;;;;;4.90;1.27;;;;;;;;;;5016663;28;20407;-60
2023/12/29 09:50:55;;;;;;;10.10;4.73;;;;;;;;;;5026701;28;20762;-60
2023/12/29 09:53:21;;;;;;;4.60;1.20;;;;;;;;;;5026126;28;20403;-60
2023/12/29 09:55:48;;;;;;;6.30;1.30;;;;;;;;;;5027649;28;20407;-60
2023/12/29 09:58:13;;;;;;;4.68;1.30;;;;;;;;;;5026540;28;21023;-61
2023/12/29 10:00:38;;;;;;;6.00;1.70;;;;;;;;;;5027477;28;20403;-60
2023/12/29 10:03:04;;;;;;;4.63;1.20;;;;;;;;;;5027557;28;20406;-60
2023/12/29 10:05:29;;;;;;;5.05;1.30;;;;;;;;;;5027031;28;20898;-60
2023/12/29 10:07:54;;;;;;;5.10;1.10;;;;;;;;;;5027252;28;20403;-61
2023/12/29 10:10:20;;;;;;;5.23;1.10;;;;;;;;;;5025349;28;20431;-60
2023/12/29 10:12:47;;;;;;;5.03;1.20;;;;;;;;;;5027095;28;20404;-61
2023/12/29 10:15:16;;;;;;;5.03;1.33;;;;;;;;;;5025414;28;20449;-61
2023/12/29 10:17:48;;;;;;;4.22;1.10;;;;;;;;;;5027261;28;20411;-60
2023/12/29 10:20:25;;;;;;;4.40;1.05;;;;;;;;;;5025250;28;20411;-61
2023/12/29 10:22:54;;;;;;;3.67;1.15;;;;;;;;;;5025478;28;20849;-61
2023/12/29 10:25:20;;;;;;;4.88;1.05;;;;;;;;;;5025858;28;20403;-61
2023/12/29 10:27:45;;;;;;;4.23;1.20;;;;;;;;;;5025786;28;20457;-60
2023/12/29 10:30:11;;;;;;;3.22;1.02;;;;;;;;;;5026397;28;20495;-61
2023/12/29 10:32:37;;;;;;;3.08;1.00;;;;;;;;;;5042360;28;20414;-61
2023/12/29 10:35:09;;;;;;;3.53;1.10;;;;;;;;;;5026211;28;20403;-61
2023/12/29 10:37:34;;;;;;;4.30;1.05;;;;;;;;;;5026707;28;20743;-60
2023/12/29 10:40:00;;;;;;;4.23;1.30;;;;;;;;;;5025846;28;21232;-60
2023/12/29 10:42:26;;;;;;;3.85;1.10;;;;;;;;;;5026655;28;20468;-61
2023/12/29 10:45:04;;;;;;;4.53;1.23;;;;;;;;;;5027204;28;20399;-60
2023/12/29 10:47:29;;;;;;;3.47;1.25;;;;;;;;;;5025940;28;20430;-60
2023/12/29 10:49:54;;;;;;;3.13;1.00;;;;;;;;;;5019265;28;20440;-60
2023/12/29 10:52:20;;;;;;;3.60;1.07;;;;;;;;;;5038893;28;20398;-60
2023/12/29 10:54:46;;;;;;;1.95;0.80;;;;;;;;;;5023751;28;20388;-60
2023/12/29 10:57:11;;;;;;;2.30;0.80;;;;;;;;;;5026004;28;20407;-60
2023/12/29 10:59:37;;;;;;;3.50;0.90;;;;;;;;;;5026314;28;20419;-60
2023/12/29 11:02:03;;;;;;;3.87;0.70;;;;;;;;;;5021331;28;20400;-61
2023/12/29 11:04:29;;;;;;;4.00;1.17;;;;;;;;;;5042164;28;20419;-60
2023/12/29 11:06:54;;;;;;;4.03;1.00;;;;;;;;;;5026963;28;20426;-60
2023/12/29 11:09:29;;;;;;;3.17;0.93;;;;;;;;;;5025406;28;20411;-61
2023/12/29 11:11:57;;;;;;;3.20;0.90;;;;;;;;;;5026011;28;20417;-60
2023/12/29 11:14:23;;;;;;;3.10;0.82;;;;;;;;;;5026383;28;20391;-61
2023/12/29 11:16:49;;;;;;;2.53;0.87;;;;;;;;;;5025810;28;20762;-61
2023/12/29 11:19:14;;;;;;;3.40;0.90;;;;;;;;;;5026166;28;20445;-61
2023/12/29 11:21:39;;;;;;;3.67;0.90;;;;;;;;;;5025924;28;21003;-60
2023/12/29 11:24:05;;;;;;;3.00;0.90;;;;;;;;;;5024048;28;20409;-60
2023/12/29 11:26:30;;;;;;;3.88;1.20;;;;;;;;;;5029456;28;20470;-60
2023/12/29 11:28:55;;;;;;;3.90;1.20;;;;;;;;;;5028889;28;20403;-60
2023/12/29 11:31:21;;;;;;;3.53;0.90;;;;;;;;;;5044498;28;20499;-60
2023/12/29 11:33:50;;;;;;;5.70;1.07;;;;;;;;;;5045846;28;20902;-60
2023/12/29 11:36:17;;;;;;;6.78;1.40;;;;;;;;;;5043990;28;20395;-60
2023/12/29 11:38:55;;;;;;;3.23;1.00;;;;;;;;;;5030094;28;20394;-60
2023/12/29 11:41:23;;;;;;;5.57;1.60;;;;;;;;;;5029476;28;20439;-60
2023/12/29 11:43:57;;;;;;;5.47;1.40;;;;;;;;;;5029673;28;20413;-60
2023/12/29 11:46:39;;;;;;;4.25;1.05;;;;;;;;;;5030031;28;20414;-60
2023/12/29 11:49:04;;;;;;;4.07;1.10;;;;;;;;;;5025379;28;20395;-60
2023/12/29 11:51:32;;;;;;;4.88;1.20;;;;;;;;;;5029114;28;20433;-60
2023/12/29 11:53:57;;;;;;;3.85;1.30;;;;;;;;;;5029972;28;20466;-60
2023/12/29 11:56:23;;;;;;;6.13;1.30;;;;;;;;;;5029542;28;20501;-60
2023/12/29 11:58:48;;;;;;;6.17;1.40;;;;;;;;;;5029273;28;20390;-60
2023/12/29 12:01:13;;;;;;;5.43;1.30;;;;;;;;;;5029029;28;20414;-60
2023/12/29 12:03:39;;;;;;;4.68;1.20;;;;;;;;;;5028955;28;20410;-61
2023/12/29 12:06:04;;;;;;;5.23;1.43;;;;;;;;;;5029097;28;20391;-60
2023/12/29 12:08:30;;;;;;;6.40;1.30;;;;;;;;;;5029671;28;20960;-60
2023/12/29 12:10:55;;;;;;;5.85;1.20;;;;;;;;;;5028278;28;20399;-60
2023/12/29 12:13:40;;;;;;;5.73;1.27;;;;;;;;;;5028541;28;20602;-60
2023/12/29 12:16:05;;;;;;;5.75;1.40;;;;;;;;;;5029517;28;20926;-59
2023/12/29 12:18:30;;;;;;;6.07;1.30;;;;;;;;;;5029020;28;20392;-60
2023/12/29 12:20:56;;;;;;;7.17;1.43;;;;;;;;;;5027756;28;20648;-61
2023/12/29 12:23:21;;;;;;;6.67;1.57;;;;;;;;;;5025871;28;20448;-60
2023/12/29 12:25:46;;;;;;;6.13;1.50;;;;;;;;;;5029245;28;20482;-60
2023/12/29 12:28:13;;;;;;;7.80;1.30;;;;;;;;;;5029257;28;20922;-60
2023/12/29 12:30:39;;;;;;;7.68;1.75;;;;;;;;;;5028978;28;20407;-60
2023/12/29 12:33:04;;;;;;;5.95;1.48;;;;;;;;;;5028396;28;20492;-61
2023/12/29 12:35:30;;;;;;;6.03;1.40;;;;;;;;;;5029332;28;20399;-60
2023/12/29 12:38:08;;;;;;;7.47;1.50;;;;;;;;;;5027737;28;20411;-59
2023/12/29 12:40:33;;;;;;;10.35;2.28;;;;;;;;;;5027540;28;20403;-59
2023/12/29 12:42:58;;;;;;;8.90;1.48;;;;;;;;;;5029032;28;20776;-59
2023/12/29 12:45:24;;;;;;;9.23;1.53;;;;;;;;;;5028263;28;20438;-59
2023/12/29 12:47:50;;;;;;;7.17;1.60;;;;;;;;;;5025026;28;20401;-59
2023/12/29 12:50:15;;;;;;;7.75;1.52;;;;;;;;;;5025174;28;20414;-59
2023/12/29 12:52:41;;;;;;;8.57;1.87;;;;;;;;;;5028981;28;20395;-59
2023/12/29 12:55:06;;;;;;;8.03;1.50;;;;;;;;;;5027939;28;20493;-60
2023/12/29 12:57:31;;;;;;;7.23;1.83;;;;;;;;;;5027348;28;20406;-59
2023/12/29 12:59:57;;;;;;;7.85;2.03;;;;;;;;;;5028420;28;20404;-59
2023/12/29 13:02:22;;;;;;;8.50;2.00;;;;;;;;;;5027677;28;20403;-59
2023/12/29 13:04:47;;;;;;;7.83;1.57;;;;;;;;;;5029234;28;20407;-59
2023/12/29 13:07:16;;;;;;;9.87;1.97;;;;;;;;;;5027927;28;20496;-59
2023/12/29 13:09:41;;;;;;;8.40;1.65;;;;;;;;;;5027384;28;20403;-59
2023/12/29 13:12:08;;;;;;;7.87;1.70;;;;;;;;;;5027172;28;20791;-60
2023/12/29 13:14:34;;;;;;;9.18;1.77;;;;;;;;;;5028170;28;20399;-60
2023/12/29 13:17:04;;;;;;;9.47;1.97;;;;;;;;;;5028391;28;20407;-59
2023/12/29 13:19:30;;;;;;;12.05;3.47;;;;;;;;;;5027456;28;20387;-60
2023/12/29 13:21:56;;;;;;;12.25;4.07;;;;;;;;;;5027465;28;20415;-63
2023/12/29 13:24:21;;;;;;;20.57;10.87;;;;;;;;;;5028240;28;20437;-60
2023/12/29 13:26:52;;;;;;;13.23;5.28;;;;;;;;;;5028845;28;20414;-59
2023/12/29 13:29:17;;;;;;;9.88;6.13;;;;;;;;;;5027349;28;21093;-59
2023/12/29 13:31:42;;;;;;;13.60;2.43;;;;;;;;;;5042826;28;20498;-59
2023/12/29 13:34:11;;;;;;;10.50;3.03;;;;;;;;;;5027917;28;20465;-60
2023/12/29 13:36:36;;;;;;;11.05;2.80;;;;;;;;;;5026103;28;20445;-60
2023/12/29 13:39:06;;;;;;;10.73;2.30;;;;;;;;;;5027822;28;20415;-59
2023/12/29 13:41:32;;;;;;;10.23;1.98;;;;;;;;;;5042640;28;20415;-60
2023/12/29 13:43:57;;;;;;;9.77;1.80;;;;;;;;;;5026081;28;20439;-60
2023/12/29 13:46:22;;;;;;;10.70;2.23;;;;;;;;;;5042953;28;20399;-60
2023/12/29 13:48:50;;;;;;;10.50;2.10;;;;;;;;;;5023375;28;20449;-59
2023/12/29 13:51:16;;;;;;;10.80;2.25;;;;;;;;;;5026306;28;20403;-60
2023/12/29 13:53:41;;;;;;;10.20;2.03;;;;;;;;;;5028020;28;20457;-59
2023/12/29 13:56:07;;;;;;;10.40;4.07;;;;;;;;;;5027315;28;20399;-60
2023/12/29 13:58:32;;;;;;;8.20;2.00;;;;;;;;;;5027209;28;20391;-59
2023/12/29 14:00:58;;;;;;;9.73;1.90;;;;;;;;;;5026918;28;20418;-60
2023/12/29 14:03:27;;;;;;;8.05;2.00;;;;;;;;;;5027335;28;20468;-60
2023/12/29 14:05:56;;;;;;;11.23;2.22;;;;;;;;;;5007310;28;20483;-59
2023/12/29 14:08:22;;;;;;;12.90;3.00;;;;;;;;;;5007404;28;20396;-59
2023/12/29 14:10:47;;;;;;;10.33;2.43;;;;;;;;;;5007023;28;20799;-60
2023/12/29 14:13:13;;;;;;;13.35;5.43;;;;;;;;;;5007515;28;20404;-60
2023/12/29 14:15:39;;;;;;;23.73;13.40;;;;;;;;;;5012644;28;20421;-59
2023/12/29 14:18:07;;;;;;;19.30;8.90;;;;;;;;;;5026648;28;20498;-60
2023/12/29 14:20:34;;;;;;;13.13;4.32;;;;;;;;;;5025408;28;20472;-59
2023/12/29 14:23:01;;;;;;;10.68;2.60;;;;;;;;;;5027450;28;20406;-59
2023/12/29 14:25:26;;;;;;;9.95;3.00;;;;;;;;;;5026384;28;20468;-59
2023/12/29 14:27:52;;;;;;;9.23;2.60;;;;;;;;;;5026032;28;20483;-60
2023/12/29 14:30:18;;;;;;;11.10;2.50;;;;;;;;;;5024985;28;20442;-59